Time;durP1;ratioP1;P1;durP2;ratioP2;P2;SDS_P1;SDS_P2;PMS_P1;PMS_P2;Temp;Humidity;BMP_temperature;BMP_pressure;BME280_temperature;BME280_humidity;BME280_pressure;Samples;Min_cycle;Max_cycle;Signal;HPM_P1;HPM_P2
2023/04/12 00:00:23;;;;;;;10.73;7.60;;;;;;;;;;2016736;29;19912;-89
2023/04/12 00:01:25;;;;;;;11.05;7.57;;;;;;;;;;2016708;29;20037;-90
2023/04/12 00:02:26;;;;;;;9.80;7.45;;;;;;;;;;1673121;29;9999809;-90
2023/04/12 00:03:26;;;;;;;12.00;7.57;;;;;;;;;;2001422;29;20090;-90
2023/04/12 00:04:27;;;;;;;11.80;7.55;;;;;;;;;;2008981;29;20126;-90
2023/04/12 00:05:29;;;;;;;9.52;7.10;;;;;;;;;;2008655;29;20519;-90
2023/04/12 00:06:33;;;;;;;10.98;7.85;;;;;;;;;;2004753;29;20128;-90
2023/04/12 00:07:36;;;;;;;8.38;6.90;;;;;;;;;;2008607;29;20033;-89
2023/04/12 00:08:37;;;;;;;10.30;7.40;;;;;;;;;;2008661;29;20043;-90
2023/04/12 00:09:38;;;;;;;10.40;7.32;;;;;;;;;;2016408;29;20025;-90
2023/04/12 00:10:38;;;;;;;10.40;7.60;;;;;;;;;;2016349;29;20479;-89
2023/04/12 00:11:39;;;;;;;10.20;7.72;;;;;;;;;;2015812;29;20158;-89
2023/04/12 00:12:39;;;;;;;11.68;7.10;;;;;;;;;;2023890;29;20122;-90
2023/04/12 00:13:40;;;;;;;8.93;6.90;;;;;;;;;;2016286;29;20056;-89
2023/04/12 00:14:40;;;;;;;9.70;7.20;;;;;;;;;;2008440;29;20060;-91
2023/04/12 00:15:41;;;;;;;9.60;6.70;;;;;;;;;;2015888;29;20129;-89
2023/04/12 00:16:42;;;;;;;;;;;;;;;;;;2016266;29;20040;-89
2023/04/12 00:17:43;;;;;;;9.57;6.87;;;;;;;;;;2015780;29;20433;-90
2023/04/12 00:18:44;;;;;;;8.88;6.00;;;;;;;;;;2015690;29;20063;-90
2023/04/12 00:19:46;;;;;;;8.20;6.22;;;;;;;;;;2008444;29;20123;-90
2023/04/12 00:20:46;;;;;;;9.55;7.35;;;;;;;;;;2008136;29;20528;-90
2023/04/12 00:22:28;;;;;;;10.00;6.78;;;;;;;;;;2011401;29;20037;-91
2023/04/12 00:23:29;;;;;;;9.48;6.22;;;;;;;;;;2014749;29;20040;-90
2023/04/12 00:24:30;;;;;;;8.48;6.30;;;;;;;;;;2019261;29;20029;-89
2023/04/12 00:26:06;;;;;;;8.02;5.95;;;;;;;;;;2020563;29;20025;-91
2023/04/12 00:27:07;;;;;;;6.88;5.88;;;;;;;;;;2004646;29;20037;-90
2023/04/12 00:28:07;;;;;;;9.68;6.47;;;;;;;;;;2007611;29;20034;-90
2023/04/12 00:29:08;;;;;;;8.85;6.38;;;;;;;;;;2001379;29;20041;-91
2023/04/12 00:30:08;;;;;;;;;;;;;;;;;;2008451;29;20490;-90
2023/04/12 00:31:09;;;;;;;8.83;6.27;;;;;;;;;;2015591;29;20012;-90
2023/04/12 00:32:09;;;;;;;7.93;5.97;;;;;;;;;;2015543;29;20029;-90
2023/04/12 00:33:09;;;;;;;;;;;;;;;;;;2008693;29;20021;-90
2023/04/12 00:34:10;;;;;;;7.50;6.17;;;;;;;;;;2007791;29;20451;-90
2023/04/12 00:35:11;;;;;;;9.63;6.05;;;;;;;;;;2015729;29;20025;-90
2023/04/12 00:36:11;;;;;;;8.93;6.30;;;;;;;;;;2007874;29;20034;-90
2023/04/12 00:37:11;;;;;;;8.30;6.20;;;;;;;;;;2015400;29;20043;-90
2023/04/12 00:38:13;;;;;;;6.93;6.22;;;;;;;;;;2007687;29;20204;-90
2023/04/12 00:39:13;;;;;;;8.38;5.90;;;;;;;;;;2015298;29;20032;-89
2023/04/12 00:40:14;;;;;;;7.05;5.80;;;;;;;;;;2007752;29;20436;-90
2023/04/12 00:41:14;;;;;;;;;;;;;;;;;;2000674;29;20345;-89
2023/04/12 00:42:15;;;;;;;8.00;6.20;;;;;;;;;;2000296;29;20481;-90
2023/04/12 00:43:17;;;;;;;;;;;;;;;;;;2016172;29;20133;-89
2023/04/12 00:44:18;;;;;;;8.75;5.93;;;;;;;;;;2015141;29;19980;-90
2023/04/12 00:45:20;;;;;;;8.18;6.28;;;;;;;;;;2000203;29;20026;-90
2023/04/12 00:46:20;;;;;;;8.05;6.20;;;;;;;;;;2008256;29;20053;-91
2023/04/12 00:47:21;;;;;;;8.02;6.10;;;;;;;;;;2000279;29;20033;-90
2023/04/12 00:48:23;;;;;;;7.38;5.78;;;;;;;;;;2000673;29;20026;-91
2023/04/12 00:49:29;;;;;;;8.57;6.20;;;;;;;;;;2008273;29;20509;-91
2023/04/12 00:50:29;;;;;;;8.95;6.07;;;;;;;;;;2019522;29;20456;-90
2023/04/12 00:51:33;;;;;;;8.07;6.30;;;;;;;;;;2016757;29;20073;-91
2023/04/12 00:52:34;;;;;;;7.68;5.40;;;;;;;;;;2016076;29;20468;-90
2023/04/12 00:53:36;;;;;;;11.65;6.03;;;;;;;;;;2007694;29;20497;-90
2023/04/12 00:54:37;;;;;;;8.73;6.20;;;;;;;;;;1658564;29;10467625;-90
2023/04/12 00:55:39;;;;;;;;;;;;;;;;;;2008285;29;20033;-91
2023/04/12 00:56:39;;;;;;;7.03;5.65;;;;;;;;;;2008731;29;19916;-91
2023/04/12 00:57:40;;;;;;;9.45;5.82;;;;;;;;;;2010399;29;20033;-91
2023/04/12 00:58:40;;;;;;;8.50;6.05;;;;;;;;;;2016643;29;20440;-91
2023/04/12 00:59:41;;;;;;;8.10;5.90;;;;;;;;;;2016244;29;20535;-90
2023/04/12 01:00:48;;;;;;;;;;;;;;;;;;2016926;29;20045;-90
2023/04/12 01:01:49;;;;;;;7.47;5.40;;;;;;;;;;2016083;29;20248;-90
2023/04/12 01:02:51;;;;;;;7.43;5.32;;;;;;;;;;2016302;29;20033;-89
2023/04/12 01:03:53;;;;;;;8.25;5.50;;;;;;;;;;2023585;29;20483;-89
2023/04/12 01:04:53;;;;;;;6.53;5.80;;;;;;;;;;2008120;29;20041;-92
2023/04/12 01:06:12;;;;;;;8.23;5.85;;;;;;;;;;2008802;29;20029;-91
2023/04/12 01:07:37;;;;;;;6.25;5.20;;;;;;;;;;2008358;29;20030;-90
2023/04/12 01:08:41;;;;;;;7.82;5.88;;;;;;;;;;1997389;29;20057;-90
2023/04/12 01:09:48;;;;;;;10.63;6.82;;;;;;;;;;2008801;29;20052;-90
2023/04/12 01:11:04;;;;;;;7.30;5.72;;;;;;;;;;2008749;29;20222;-91
2023/04/12 01:12:13;;;;;;;6.80;5.70;;;;;;;;;;2010576;29;20441;-91
2023/04/12 01:13:25;;;;;;;8.25;6.15;;;;;;;;;;1673319;29;10001309;-91
2023/04/12 01:14:40;;;;;;;8.18;6.13;;;;;;;;;;2010006;29;20069;-91
2023/04/12 01:15:52;;;;;;;7.70;5.47;;;;;;;;;;2008328;29;20144;-89
2023/04/12 01:16:59;;;;;;;8.73;5.78;;;;;;;;;;2002128;29;20037;-92
2023/04/12 01:18:22;;;;;;;8.30;5.80;;;;;;;;;;2002427;29;20030;-90
2023/04/12 01:19:56;;;;;;;7.75;5.43;;;;;;;;;;2017821;29;20036;-88
2023/04/12 01:21:09;;;;;;;8.10;5.68;;;;;;;;;;2016084;29;20032;-92
2023/04/12 01:22:25;;;;;;;6.85;5.80;;;;;;;;;;2018757;29;20043;-90
2023/04/12 01:23:38;;;;;;;7.75;5.85;;;;;;;;;;2016705;29;20047;-91
2023/04/12 01:24:51;;;;;;;7.35;4.95;;;;;;;;;;2010473;29;20479;-91
2023/04/12 01:26:01;;;;;;;8.00;5.43;;;;;;;;;;2010292;29;20494;-91
2023/04/12 01:27:02;;;;;;;7.45;5.80;;;;;;;;;;2008804;29;20025;-90
2023/04/12 01:28:03;;;;;;;7.95;5.40;;;;;;;;;;2015364;29;20044;-90
2023/04/12 01:29:09;;;;;;;7.30;5.53;;;;;;;;;;2015684;29;20037;-89
2023/04/12 01:30:14;;;;;;;7.13;5.55;;;;;;;;;;2008366;29;20029;-91
2023/04/12 01:31:16;;;;;;;7.32;5.63;;;;;;;;;;2008395;29;20165;-92
2023/04/12 01:32:19;;;;;;;7.57;5.47;;;;;;;;;;2015602;29;20021;-91
2023/04/12 01:33:20;;;;;;;7.57;5.93;;;;;;;;;;2015870;29;20093;-90
2023/04/12 01:34:22;;;;;;;6.38;5.18;;;;;;;;;;2007807;29;20078;-89
2023/04/12 01:35:27;;;;;;;7.15;5.32;;;;;;;;;;2015616;29;20116;-89
2023/04/12 01:36:29;;;;;;;8.55;5.68;;;;;;;;;;2007743;29;20198;-89
2023/04/12 01:37:31;;;;;;;7.43;5.28;;;;;;;;;;2007787;29;20033;-90
2023/04/12 01:38:32;;;;;;;6.85;5.38;;;;;;;;;;2007703;29;20049;-89
2023/04/12 01:39:33;;;;;;;7.05;4.68;;;;;;;;;;2007404;29;20033;-88
2023/04/12 01:40:34;;;;;;;;;;;;;;;;;;2016346;29;20060;-89
2023/04/12 01:41:42;;;;;;;8.80;5.43;;;;;;;;;;2015450;29;20006;-89
2023/04/12 01:42:42;;;;;;;8.73;5.95;;;;;;;;;;2015606;29;20037;-89
2023/04/12 01:43:44;;;;;;;8.27;5.70;;;;;;;;;;2015220;29;20033;-89
2023/04/12 01:44:44;;;;;;;7.45;5.35;;;;;;;;;;2007384;29;20077;-90
2023/04/12 01:45:45;;;;;;;6.85;5.32;;;;;;;;;;2007228;29;20037;-91
2023/04/12 01:46:47;;;;;;;8.60;5.55;;;;;;;;;;2007552;29;20049;-87
2023/04/12 01:47:47;;;;;;;8.02;5.85;;;;;;;;;;2015086;29;20033;-91
2023/04/12 01:48:50;;;;;;;7.00;5.60;;;;;;;;;;2015084;29;20516;-91
2023/04/12 01:50:15;;;;;;;7.97;5.93;;;;;;;;;;2023150;29;20555;-91
2023/04/12 01:51:27;;;;;;;7.47;5.82;;;;;;;;;;2019812;29;20261;-90
2023/04/12 01:52:31;;;;;;;8.95;6.10;;;;;;;;;;2009001;29;20040;-90
2023/04/12 01:53:34;;;;;;;7.43;5.60;;;;;;;;;;2007847;29;20029;-90
2023/04/12 01:54:38;;;;;;;7.90;6.35;;;;;;;;;;2007767;29;20037;-90
2023/04/12 01:55:44;;;;;;;9.48;6.03;;;;;;;;;;2007715;29;20037;-91
2023/04/12 01:56:48;;;;;;;7.70;5.57;;;;;;;;;;2014974;29;20136;-91
2023/04/12 01:57:50;;;;;;;9.02;5.95;;;;;;;;;;2015968;29;20112;-90
2023/04/12 01:58:52;;;;;;;7.18;5.80;;;;;;;;;;2007430;29;20030;-89
2023/04/12 01:59:55;;;;;;;5.82;5.00;;;;;;;;;;1661138;29;10370920;-89
2023/04/12 02:00:57;;;;;;;6.75;4.97;;;;;;;;;;2007417;29;20184;-91
2023/04/12 02:01:58;;;;;;;8.18;5.82;;;;;;;;;;2007437;29;20070;-91
2023/04/12 02:02:58;;;;;;;6.65;5.68;;;;;;;;;;2022552;29;20071;-90
2023/04/12 02:04:00;;;;;;;8.18;6.13;;;;;;;;;;2022335;29;20307;-89
2023/04/12 02:05:03;;;;;;;6.55;5.55;;;;;;;;;;2015093;29;20036;-90
2023/04/12 02:06:04;;;;;;;7.55;5.85;;;;;;;;;;2014579;29;20029;-90
2023/04/12 02:07:05;;;;;;;7.07;5.65;;;;;;;;;;2006909;29;20477;-89
2023/04/12 02:08:05;;;;;;;7.15;5.18;;;;;;;;;;2007118;29;20538;-89
2023/04/12 02:09:06;;;;;;;7.82;6.25;;;;;;;;;;2015008;29;20078;-89
2023/04/12 02:10:07;;;;;;;;;;;;;;;;;;2015073;29;20052;-88
2023/04/12 02:11:10;;;;;;;8.93;5.70;;;;;;;;;;2005529;29;20366;-89
2023/04/12 02:12:12;;;;;;;7.45;5.45;;;;;;;;;;2015805;29;20051;-89
2023/04/12 02:13:12;;;;;;;7.20;5.30;;;;;;;;;;2009279;29;20029;-88
2023/04/12 02:14:12;;;;;;;6.25;5.00;;;;;;;;;;2018077;29;20028;-90
2023/04/12 02:15:13;;;;;;;;;;;;;;;;;;2015519;29;20029;-90
2023/04/12 02:16:13;;;;;;;7.83;5.40;;;;;;;;;;2014999;29;20403;-90
2023/04/12 02:17:14;;;;;;;6.68;5.25;;;;;;;;;;2007219;29;20105;-90
2023/04/12 02:18:16;;;;;;;7.60;5.38;;;;;;;;;;2015375;29;20029;-90
2023/04/12 02:19:18;;;;;;;8.25;5.80;;;;;;;;;;2019276;29;20029;-90
2023/04/12 02:20:23;;;;;;;6.65;5.32;;;;;;;;;;2012932;29;20029;-90
2023/04/12 02:21:25;;;;;;;8.30;5.47;;;;;;;;;;2017515;29;20029;-89
2023/04/12 02:22:25;;;;;;;8.93;5.20;;;;;;;;;;2016714;29;20029;-91
2023/04/12 02:23:26;;;;;;;7.75;6.00;;;;;;;;;;2024688;29;20056;-90
2023/04/12 02:24:26;;;;;;;6.50;5.50;;;;;;;;;;2019643;29;20441;-90
2023/04/12 02:25:27;;;;;;;7.30;6.32;;;;;;;;;;2008461;29;20036;-90
2023/04/12 02:26:27;;;;;;;7.03;5.57;;;;;;;;;;2008270;29;20033;-90
2023/04/12 02:27:28;;;;;;;7.03;5.32;;;;;;;;;;2015202;29;20100;-89
2023/04/12 02:28:28;;;;;;;;;;;;;;;;;;2015940;29;20412;-90
2023/04/12 02:29:28;;;;;;;8.17;6.13;;;;;;;;;;2007323;29;19912;-90
2023/04/12 02:30:29;;;;;;;8.57;5.70;;;;;;;;;;2007064;29;20520;-90
2023/04/12 02:31:29;;;;;;;7.60;5.10;;;;;;;;;;2015592;29;20049;-89
2023/04/12 02:32:31;;;;;;;6.25;5.20;;;;;;;;;;2007062;29;20109;-90
2023/04/12 02:33:32;;;;;;;7.55;5.70;;;;;;;;;;2007285;29;20509;-90
2023/04/12 02:34:35;;;;;;;6.60;5.40;;;;;;;;;;2015532;29;20131;-90
2023/04/12 02:35:36;;;;;;;7.53;6.03;;;;;;;;;;2007756;29;20068;-89
2023/04/12 02:36:36;;;;;;;9.13;6.00;;;;;;;;;;2000903;29;20081;-89
2023/04/12 02:37:37;;;;;;;;;;;;;;;;;;2009267;29;20025;-89
2023/04/12 02:38:37;;;;;;;7.67;5.60;;;;;;;;;;2017093;29;19929;-90
2023/04/12 02:39:37;;;;;;;7.63;5.75;;;;;;;;;;2021967;29;20055;-90
2023/04/12 02:40:41;;;;;;;8.68;5.38;;;;;;;;;;2027099;29;20069;-89
2023/04/12 02:41:42;;;;;;;6.35;5.55;;;;;;;;;;2019049;29;20030;-90
2023/04/12 02:42:43;;;;;;;7.68;5.75;;;;;;;;;;2008319;29;20513;-90
2023/04/12 02:43:44;;;;;;;9.55;5.35;;;;;;;;;;2017759;29;20157;-90
2023/04/12 02:44:46;;;;;;;7.00;5.70;;;;;;;;;;2016844;29;20025;-90
2023/04/12 02:45:47;;;;;;;6.88;5.10;;;;;;;;;;2016650;29;20112;-89
2023/04/12 02:46:47;;;;;;;7.07;5.38;;;;;;;;;;2008960;29;20140;-90
2023/04/12 02:47:47;;;;;;;7.82;5.80;;;;;;;;;;2008594;29;20438;-89
2023/04/12 02:48:48;;;;;;;8.32;5.80;;;;;;;;;;2008320;29;20128;-89
2023/04/12 02:49:50;;;;;;;6.65;5.95;;;;;;;;;;2008808;29;20104;-91
2023/04/12 02:50:51;;;;;;;6.30;5.28;;;;;;;;;;2008760;29;20029;-89
2023/04/12 02:51:51;;;;;;;7.03;5.65;;;;;;;;;;2017610;29;20544;-90
2023/04/12 02:52:51;;;;;;;;;;;;;;;;;;2017597;29;20031;-90
2023/04/12 02:53:52;;;;;;;7.77;5.67;;;;;;;;;;2009419;29;19916;-90
2023/04/12 02:54:52;;;;;;;8.35;5.25;;;;;;;;;;2009171;29;20155;-91
2023/04/12 02:55:52;;;;;;;7.82;5.82;;;;;;;;;;2009096;29;20029;-90
2023/04/12 02:56:53;;;;;;;7.70;5.43;;;;;;;;;;2009413;29;20021;-92
2023/04/12 02:57:53;;;;;;;;;;;;;;;;;;2018121;29;20108;-90
2023/04/12 02:58:54;;;;;;;7.87;5.63;;;;;;;;;;2009192;29;19920;-90
2023/04/12 02:59:55;;;;;;;;;;;;;;;;;;2013238;29;20069;-91
2023/04/12 03:00:56;;;;;;;8.57;6.00;;;;;;;;;;2024703;29;19911;-91
2023/04/12 03:01:56;;;;;;;8.10;6.32;;;;;;;;;;2013907;29;20030;-92
2023/04/12 03:02:58;;;;;;;7.35;5.88;;;;;;;;;;2009348;29;20034;-91
2023/04/12 03:04:00;;;;;;;7.43;5.82;;;;;;;;;;2017198;29;20465;-90
2023/04/12 03:05:02;;;;;;;7.40;5.78;;;;;;;;;;2009228;29;20116;-90
2023/04/12 03:06:02;;;;;;;6.80;5.40;;;;;;;;;;2009099;29;20104;-90
2023/04/12 03:07:04;;;;;;;7.95;6.13;;;;;;;;;;2010041;29;20513;-92
2023/04/12 03:08:04;;;;;;;8.98;6.47;;;;;;;;;;2026731;29;20017;-88
2023/04/12 03:09:05;;;;;;;;;;;;;;;;;;2019525;29;20040;-91
2023/04/12 03:10:06;;;;;;;8.10;6.40;;;;;;;;;;2009423;29;20026;-91
2023/04/12 03:11:07;;;;;;;6.88;5.82;;;;;;;;;;2009125;29;20021;-91
2023/04/12 03:12:07;;;;;;;7.90;6.20;;;;;;;;;;2009633;29;20022;-91
2023/04/12 03:13:07;;;;;;;;;;;;;;;;;;2009920;29;20025;-91
2023/04/12 03:14:08;;;;;;;9.23;6.33;;;;;;;;;;2009313;29;19912;-92
2023/04/12 03:15:08;;;;;;;;;;;;;;;;;;2025227;29;20136;-91
2023/04/12 03:16:24;;;;;;;7.53;6.00;;;;;;;;;;2016929;29;19930;-90
2023/04/12 03:17:24;;;;;;;7.25;5.40;;;;;;;;;;2010986;29;20430;-90
2023/04/12 03:18:25;;;;;;;6.93;5.40;;;;;;;;;;2016933;29;20029;-91
2023/04/12 03:19:27;;;;;;;8.98;6.32;;;;;;;;;;2011917;29;20052;-92
2023/04/12 03:20:27;;;;;;;8.55;6.72;;;;;;;;;;2007481;29;20037;-95
2023/04/12 03:21:28;;;;;;;8.70;6.47;;;;;;;;;;2012367;29;20032;-92
2023/04/12 03:22:28;;;;;;;7.68;5.80;;;;;;;;;;2019616;29;20052;-92
2023/04/12 03:23:29;;;;;;;6.70;5.68;;;;;;;;;;2018627;29;20029;-92
2023/04/12 03:24:33;;;;;;;8.05;5.63;;;;;;;;;;2010886;29;20113;-91
2023/04/12 03:25:33;;;;;;;7.95;5.60;;;;;;;;;;2018249;29;20086;-95
2023/04/12 03:26:37;;;;;;;7.85;5.78;;;;;;;;;;2018111;29;20067;-95
2023/04/12 03:27:37;;;;;;;8.00;5.88;;;;;;;;;;2023540;29;20036;-90
2023/04/12 03:28:38;;;;;;;8.30;6.20;;;;;;;;;;2024121;29;20027;-92
2023/04/12 03:29:38;;;;;;;9.43;6.15;;;;;;;;;;2008610;29;20041;-90
2023/04/12 03:30:39;;;;;;;7.20;6.03;;;;;;;;;;2016497;29;20029;-90
2023/04/12 03:31:39;;;;;;;7.53;6.18;;;;;;;;;;2016277;29;20033;-89
2023/04/12 03:32:41;;;;;;;7.55;6.32;;;;;;;;;;2008803;29;20089;-92
2023/04/12 03:33:41;;;;;;;8.50;6.40;;;;;;;;;;2016169;29;20164;-91
2023/04/12 03:34:41;;;;;;;6.80;6.03;;;;;;;;;;2016265;29;20044;-90
2023/04/12 03:35:42;;;;;;;;;;;;;;;;;;2016401;29;20060;-91
2023/04/12 03:36:42;;;;;;;8.47;6.53;;;;;;;;;;2016139;29;19933;-90
2023/04/12 03:37:43;;;;;;;;;;;;;;;;;;2008563;29;20038;-91
2023/04/12 03:38:44;;;;;;;8.53;6.27;;;;;;;;;;2015917;29;19916;-90
2023/04/12 03:39:46;;;;;;;6.90;5.93;;;;;;;;;;2023465;29;20107;-90
2023/04/12 03:40:47;;;;;;;8.77;6.07;;;;;;;;;;2015459;29;20021;-90
2023/04/12 03:41:47;;;;;;;6.78;5.57;;;;;;;;;;2008026;29;20029;-90
2023/04/12 03:42:47;;;;;;;;;;;;;;;;;;2016155;29;20032;-90
2023/04/12 03:43:48;;;;;;;6.93;5.47;;;;;;;;;;2015738;29;19911;-88
2023/04/12 03:44:48;;;;;;;;;;;;;;;;;;2008284;29;20034;-90
2023/04/12 03:45:49;;;;;;;7.53;6.30;;;;;;;;;;2015835;29;20537;-90
2023/04/12 03:46:49;;;;;;;;;;;;;;;;;;2015988;29;20488;-89
2023/04/12 03:47:49;;;;;;;8.43;6.23;;;;;;;;;;2015791;29;20113;-90
2023/04/12 03:48:50;;;;;;;;;;;;;;;;;;2016742;29;20037;-89
2023/04/12 03:50:01;;;;;;;8.18;6.13;;;;;;;;;;2008008;29;19956;-90
2023/04/12 03:51:06;;;;;;;8.43;6.18;;;;;;;;;;2009498;29;20033;-89
2023/04/12 03:52:07;;;;;;;8.55;6.00;;;;;;;;;;2016479;29;20131;-89
2023/04/12 03:53:07;;;;;;;10.27;6.20;;;;;;;;;;2015774;29;20571;-90
2023/04/12 03:54:08;;;;;;;;;;;;;;;;;;2008409;29;20105;-91
2023/04/12 03:55:10;;;;;;;6.35;5.28;;;;;;;;;;2008266;29;19984;-90
2023/04/12 03:56:11;;;;;;;7.20;6.10;;;;;;;;;;2016054;29;20456;-92
2023/04/12 03:57:12;;;;;;;8.55;6.65;;;;;;;;;;2008004;29;20021;-91
2023/04/12 03:58:12;;;;;;;7.10;6.20;;;;;;;;;;2008362;29;20457;-92
2023/04/12 03:59:13;;;;;;;8.23;6.35;;;;;;;;;;2008197;29;20054;-90
2023/04/12 04:00:14;;;;;;;8.77;6.53;;;;;;;;;;2008364;29;20561;-90
2023/04/12 04:01:16;;;;;;;;;;;;;;;;;;2017194;29;20021;-90
2023/04/12 04:02:17;;;;;;;8.15;6.03;;;;;;;;;;2017954;29;19915;-89
2023/04/12 04:03:17;;;;;;;9.63;6.55;;;;;;;;;;2018149;29;20070;-89
2023/04/12 04:04:18;;;;;;;9.10;6.57;;;;;;;;;;2015783;29;20468;-88
2023/04/12 04:05:18;;;;;;;7.88;6.40;;;;;;;;;;2008046;29;20544;-90
2023/04/12 04:06:19;;;;;;;;;;;;;;;;;;2016443;29;20116;-91
2023/04/12 04:07:20;;;;;;;11.23;6.80;;;;;;;;;;2015896;29;19974;-90
2023/04/12 04:08:21;;;;;;;10.00;6.72;;;;;;;;;;2008213;29;20064;-91
2023/04/12 04:09:21;;;;;;;9.93;7.05;;;;;;;;;;2008300;29;20022;-90
2023/04/12 04:10:21;;;;;;;8.93;6.13;;;;;;;;;;2015883;29;20489;-91
2023/04/12 04:11:23;;;;;;;;;;;;;;;;;;2016980;29;20117;-87
2023/04/12 04:12:23;;;;;;;7.82;6.32;;;;;;;;;;2008196;29;19916;-88
2023/04/12 04:13:24;;;;;;;8.32;6.03;;;;;;;;;;2000404;29;20030;-90
2023/04/12 04:14:24;;;;;;;8.60;6.45;;;;;;;;;;2008580;29;20029;-90
2023/04/12 04:15:26;;;;;;;9.30;6.32;;;;;;;;;;2008717;29;20032;-88
2023/04/12 04:16:28;;;;;;;8.43;6.65;;;;;;;;;;2009476;29;20038;-90
2023/04/12 04:17:29;;;;;;;10.07;7.10;;;;;;;;;;2023203;29;20024;-89
2023/04/12 04:18:30;;;;;;;7.40;5.85;;;;;;;;;;2016388;29;20183;-89
2023/04/12 04:19:30;;;;;;;10.35;6.35;;;;;;;;;;2015442;29;20021;-89
2023/04/12 04:20:31;;;;;;;7.65;5.90;;;;;;;;;;2015837;29;20059;-89
2023/04/12 04:21:32;;;;;;;7.90;6.45;;;;;;;;;;2007775;29;20034;-89
2023/04/12 04:22:33;;;;;;;7.90;6.28;;;;;;;;;;2015495;29;20073;-89
2023/04/12 04:23:37;;;;;;;9.82;6.40;;;;;;;;;;2007818;29;20192;-89
2023/04/12 04:24:37;;;;;;;9.15;6.25;;;;;;;;;;2008503;29;20030;-89
2023/04/12 04:25:38;;;;;;;11.00;6.95;;;;;;;;;;2015499;29;20060;-89
2023/04/12 04:26:39;;;;;;;8.07;6.20;;;;;;;;;;2016212;29;20044;-89
2023/04/12 04:27:43;;;;;;;10.20;6.95;;;;;;;;;;2015805;29;20127;-89
2023/04/12 04:28:45;;;;;;;9.43;6.70;;;;;;;;;;2015508;29;20028;-88
2023/04/12 04:29:46;;;;;;;9.25;6.78;;;;;;;;;;2012000;29;20040;-88
2023/04/12 04:30:46;;;;;;;8.40;5.97;;;;;;;;;;2016098;29;20075;-88
2023/04/12 04:31:47;;;;;;;;;;;;;;;;;;2023815;29;20519;-89
2023/04/12 04:32:48;;;;;;;8.67;6.90;;;;;;;;;;2015723;29;20321;-89
2023/04/12 04:33:49;;;;;;;8.23;6.65;;;;;;;;;;2007793;29;20041;-89
2023/04/12 04:34:50;;;;;;;10.45;6.78;;;;;;;;;;2007685;29;20056;-89
2023/04/12 04:35:51;;;;;;;9.88;6.95;;;;;;;;;;2007659;29;20022;-89
2023/04/12 04:36:51;;;;;;;8.10;6.32;;;;;;;;;;2007614;29;20482;-90
2023/04/12 04:37:52;;;;;;;;;;;;;;;;;;2015803;29;20355;-89
2023/04/12 04:38:53;;;;;;;9.15;7.00;;;;;;;;;;2007331;29;19916;-89
2023/04/12 04:39:53;;;;;;;9.60;6.97;;;;;;;;;;2014966;29;20473;-89
2023/04/12 04:40:54;;;;;;;9.27;7.00;;;;;;;;;;2015255;29;20692;-89
2023/04/12 04:41:54;;;;;;;;;;;;;;;;;;2018561;29;20123;-89
2023/04/12 04:42:55;;;;;;;8.37;6.60;;;;;;;;;;2015843;29;19912;-89
2023/04/12 04:43:55;;;;;;;;;;;;;;;;;;2008195;29;20405;-89
2023/04/12 04:45:02;;;;;;;9.17;6.53;;;;;;;;;;2007623;29;19935;-89
2023/04/12 04:46:03;;;;;;;9.60;7.05;;;;;;;;;;2010993;29;20028;-90
2023/04/12 04:47:03;;;;;;;9.38;6.85;;;;;;;;;;2015345;29;20033;-90
2023/04/12 04:48:05;;;;;;;9.38;7.18;;;;;;;;;;2007816;29;20053;-89
2023/04/12 04:49:08;;;;;;;11.07;6.95;;;;;;;;;;2011663;29;20029;-96
2023/04/12 04:50:12;;;;;;;13.18;7.63;;;;;;;;;;2004314;29;20026;-96
2023/04/12 04:51:13;;;;;;;8.07;6.70;;;;;;;;;;2007953;29;20029;-90
2023/04/12 04:52:14;;;;;;;9.18;7.47;;;;;;;;;;2007643;29;20129;-90
2023/04/12 04:53:17;;;;;;;10.75;6.30;;;;;;;;;;2008035;29;20478;-90
2023/04/12 04:54:17;;;;;;;9.55;7.15;;;;;;;;;;2008007;29;20032;-90
2023/04/12 04:55:19;;;;;;;9.35;7.20;;;;;;;;;;2015363;29;20104;-89
2023/04/12 04:56:22;;;;;;;8.38;6.60;;;;;;;;;;2017595;29;20055;-87
2023/04/12 04:57:23;;;;;;;9.98;6.88;;;;;;;;;;2018671;29;20073;-90
2023/04/12 04:58:24;;;;;;;9.45;6.35;;;;;;;;;;2007590;29;20034;-89
2023/04/12 04:59:24;;;;;;;8.82;6.60;;;;;;;;;;2008493;29;20060;-89
2023/04/12 05:00:25;;;;;;;;;;;;;;;;;;2015983;29;20417;-89
2023/04/12 05:01:26;;;;;;;8.33;6.33;;;;;;;;;;2008402;29;19968;-90
2023/04/12 05:02:27;;;;;;;11.00;7.63;;;;;;;;;;2015457;29;20047;-89
2023/04/12 05:03:28;;;;;;;10.18;7.35;;;;;;;;;;2015764;29;20093;-90
2023/04/12 05:04:28;;;;;;;;;;;;;;;;;;2016122;29;20477;-90
2023/04/12 05:05:29;;;;;;;10.20;6.70;;;;;;;;;;2016406;29;19922;-90
2023/04/12 05:06:30;;;;;;;9.00;6.65;;;;;;;;;;2019828;29;20082;-90
2023/04/12 05:07:30;;;;;;;9.88;7.10;;;;;;;;;;2026027;29;20041;-90
2023/04/12 05:08:30;;;;;;;9.80;6.63;;;;;;;;;;2018684;29;20025;-89
2023/04/12 05:09:31;;;;;;;9.43;7.35;;;;;;;;;;2018318;29;20033;-91
2023/04/12 05:10:31;;;;;;;8.75;6.68;;;;;;;;;;2016815;29;20053;-90
2023/04/12 05:11:32;;;;;;;;;;;;;;;;;;2014333;29;20037;-89
2023/04/12 05:12:32;;;;;;;9.77;6.80;;;;;;;;;;2011762;29;19939;-89
2023/04/12 05:14:08;;;;;;;9.63;6.47;;;;;;;;;;2008623;29;20033;-91
2023/04/12 05:15:09;;;;;;;11.40;7.63;;;;;;;;;;2000010;29;20054;-89
2023/04/12 05:16:10;;;;;;;11.55;7.63;;;;;;;;;;1999906;29;20046;-90
2023/04/12 05:17:11;;;;;;;10.60;6.55;;;;;;;;;;2001270;29;20422;-89
2023/04/12 05:18:12;;;;;;;8.35;6.60;;;;;;;;;;2016125;29;20033;-91
2023/04/12 05:19:13;;;;;;;9.60;7.18;;;;;;;;;;2015943;29;20500;-90
2023/04/12 05:20:13;;;;;;;9.52;7.00;;;;;;;;;;2007958;29;20124;-90
2023/04/12 05:21:14;;;;;;;8.82;6.60;;;;;;;;;;2007715;29;20379;-90
2023/04/12 05:22:19;;;;;;;10.00;7.22;;;;;;;;;;2023222;29;20043;-89
2023/04/12 05:23:19;;;;;;;11.30;7.18;;;;;;;;;;2029662;29;20111;-89
2023/04/12 05:24:19;;;;;;;9.95;7.30;;;;;;;;;;2015646;29;20029;-88
2023/04/12 05:25:21;;;;;;;10.13;7.03;;;;;;;;;;2023559;29;20028;-88
2023/04/12 05:26:23;;;;;;;9.10;6.80;;;;;;;;;;2024084;29;20088;-89
2023/04/12 05:27:23;;;;;;;9.05;7.00;;;;;;;;;;2019566;29;20077;-89
2023/04/12 05:28:23;;;;;;;9.35;7.25;;;;;;;;;;2017567;29;20033;-88
2023/04/12 05:29:24;;;;;;;7.68;6.90;;;;;;;;;;2021915;29;20225;-89
2023/04/12 05:30:24;;;;;;;;;;;;;;;;;;2026331;29;20025;-89
2023/04/12 05:31:26;;;;;;;9.27;7.43;;;;;;;;;;2016832;29;19911;-91
2023/04/12 05:32:27;;;;;;;9.43;7.20;;;;;;;;;;2008374;29;20033;-89
2023/04/12 05:33:27;;;;;;;10.00;6.75;;;;;;;;;;2012791;29;20026;-90
2023/04/12 05:34:28;;;;;;;12.13;7.63;;;;;;;;;;2016130;29;20312;-89
2023/04/12 05:35:31;;;;;;;14.18;7.50;;;;;;;;;;2017905;29;20502;-91
2023/04/12 05:36:32;;;;;;;9.13;7.03;;;;;;;;;;2017968;29;20029;-92
2023/04/12 05:37:32;;;;;;;9.50;7.40;;;;;;;;;;2009734;29;20037;-94
2023/04/12 05:40:51;;;;;;;10.73;7.82;;;;;;;;;;2023559;29;20060;-92
2023/04/12 05:41:52;;;;;;;10.80;7.45;;;;;;;;;;2016867;29;20055;-93
2023/04/12 05:42:52;;;;;;;14.88;7.78;;;;;;;;;;2016911;29;20536;-92
2023/04/12 05:43:54;;;;;;;10.50;7.10;;;;;;;;;;2016773;29;20053;-93
2023/04/12 05:44:55;;;;;;;9.90;7.20;;;;;;;;;;1680294;29;10001632;-94
2023/04/12 05:45:55;;;;;;;11.25;6.95;;;;;;;;;;2019001;29;20056;-94
2023/04/12 05:48:58;;;;;;;11.18;7.90;;;;;;;;;;2030511;29;20040;-92
2023/04/12 05:50:15;;;;;;;15.38;8.18;;;;;;;;;;2024733;29;20029;-94
2023/04/12 05:51:16;;;;;;;9.27;7.38;;;;;;;;;;2024996;29;20064;-95
2023/04/12 05:52:52;;;;;;;12.23;7.10;;;;;;;;;;2020364;29;20037;-95
2023/04/12 05:54:13;;;;;;;12.57;7.90;;;;;;;;;;2013232;29;20038;-93
2023/04/12 05:55:36;;;;;;;12.00;7.68;;;;;;;;;;2016696;29;20027;-95
2023/04/12 05:56:43;;;;;;;9.95;7.68;;;;;;;;;;2018254;29;20041;-96
2023/04/12 05:57:45;;;;;;;9.25;6.57;;;;;;;;;;2026342;29;20139;-94
2023/04/12 05:58:46;;;;;;;9.68;7.00;;;;;;;;;;2025345;29;20047;-94
2023/04/12 05:59:46;;;;;;;14.82;8.35;;;;;;;;;;2025043;29;20024;-95
2023/04/12 06:00:48;;;;;;;12.57;7.63;;;;;;;;;;2024975;29;20028;-94
2023/04/12 06:01:49;;;;;;;14.85;8.07;;;;;;;;;;2024843;29;20045;-93
2023/04/12 06:02:50;;;;;;;12.40;8.05;;;;;;;;;;2025090;29;20028;-95
2023/04/12 06:03:50;;;;;;;12.20;7.65;;;;;;;;;;2025124;29;20032;-95
2023/04/12 06:04:52;;;;;;;12.27;7.35;;;;;;;;;;2032873;29;20507;-94
2023/04/12 06:05:52;;;;;;;11.10;7.60;;;;;;;;;;2032819;29;20039;-94
2023/04/12 06:06:55;;;;;;;10.00;6.95;;;;;;;;;;2025889;29;20021;-95
2023/04/12 06:07:55;;;;;;;12.90;7.90;;;;;;;;;;2027201;29;20116;-96
2023/04/12 06:08:59;;;;;;;13.60;8.32;;;;;;;;;;2029908;29;20119;-93
2023/04/12 06:10:46;;;;;;;10.27;6.90;;;;;;;;;;2029686;29;20168;-94
2023/04/12 06:11:48;;;;;;;14.80;9.15;;;;;;;;;;2032407;29;20028;-94
2023/04/12 06:12:48;;;;;;;8.60;7.28;;;;;;;;;;2027127;29;20420;-95
2023/04/12 06:14:10;;;;;;;;;;;;;;;;;;;;;
2023/04/12 06:15:11;;;;;;;12.18;7.20;;;;;;;;;;2026454;29;20013;-96
2023/04/12 06:16:12;;;;;;;10.38;7.38;;;;;;;;;;2025126;29;20064;-95
2023/04/12 06:17:15;;;;;;;10.07;7.85;;;;;;;;;;2017523;29;20048;-94
2023/04/12 06:18:18;;;;;;;10.00;6.90;;;;;;;;;;2010321;29;20085;-95
2023/04/12 06:19:30;;;;;;;12.43;8.07;;;;;;;;;;2018441;29;20541;-95
2023/04/12 06:20:41;;;;;;;9.95;7.18;;;;;;;;;;2025327;29;20032;-95
2023/04/12 06:21:41;;;;;;;10.88;7.90;;;;;;;;;;2018195;29;20108;-93
2023/04/12 06:22:42;;;;;;;11.15;7.05;;;;;;;;;;2009761;29;20435;-95
2023/04/12 06:23:42;;;;;;;13.20;7.82;;;;;;;;;;2017549;29;20021;-94